Time;durP1;ratioP1;P1;durP2;ratioP2;P2;SDS_P1;SDS_P2;PMS_P1;PMS_P2;Temp;Humidity;BMP_temperature;BMP_pressure;BME280_temperature;BME280_humidity;BME280_pressure;Samples;Min_cycle;Max_cycle;Signal;HPM_P1;HPM_P2
2024/01/19 00:01:10;;;;;;;37.50;19.40;;;;;;;-2.12;87.55;98784.67;215678;1267;141724;-73
2024/01/19 00:06:19;;;;;;;42.00;20.60;;;;;;;-2.22;87.19;98795.09;215416;1273;141555;-73
2024/01/19 00:11:22;;;;;;;45.50;18.70;;;;;;;-2.32;87.29;98804.88;215227;1272;143784;-72
2024/01/19 00:16:26;;;;;;;49.70;25.00;;;;;;;-2.45;87.03;98807.42;215414;1267;141017;-72
2024/01/19 00:21:28;;;;;;;45.30;23.20;;;;;;;-2.50;87.39;98821.55;215508;1268;142852;-72
2024/01/19 00:26:32;;;;;;;49.90;22.90;;;;;;;-2.50;87.56;98836.00;215856;1267;141204;-72
2024/01/19 00:31:35;;;;;;;48.70;24.50;;;;;;;-2.55;87.24;98854.02;216253;1272;140462;-73
2024/01/19 00:36:38;;;;;;;39.50;20.30;;;;;;;-2.58;87.44;98863.89;215441;1267;140722;-72
2024/01/19 00:41:42;;;;;;;45.00;21.70;;;;;;;-2.60;87.38;98865.36;215300;1271;141001;-71
2024/01/19 00:46:44;;;;;;;62.00;26.30;;;;;;;-2.59;87.65;98871.31;215330;1267;141702;-72
2024/01/19 00:51:47;;;;;;;49.30;25.00;;;;;;;-2.55;87.74;98880.96;215494;1272;141289;-72
2024/01/19 00:56:51;;;;;;;46.70;24.00;;;;;;;-2.54;87.76;98887.05;215808;1267;142254;-73
2024/01/19 01:01:54;;;;;;;41.60;19.20;;;;;;;-2.50;87.74;98898.67;215603;1267;141866;-72
2024/01/19 01:06:59;;;;;;;42.90;19.30;;;;;;;-2.55;87.41;98906.30;215725;1271;141482;-73
2024/01/19 01:12:03;;;;;;;43.20;20.50;;;;;;;-2.59;87.29;98915.08;215641;1267;140592;-73
2024/01/19 01:17:06;;;;;;;52.40;24.20;;;;;;;-2.63;87.35;98924.33;217003;1267;141551;-73
2024/01/19 01:22:12;;;;;;;52.30;22.20;;;;;;;-2.66;87.40;98934.05;215411;1267;142498;-72
2024/01/19 01:27:16;;;;;;;46.60;21.60;;;;;;;-2.71;87.22;98945.36;217147;1267;141429;-72
2024/01/19 01:32:20;;;;;;;48.30;23.30;;;;;;;-2.75;87.38;98952.22;216248;1267;141811;-72
2024/01/19 01:37:23;;;;;;;52.80;23.60;;;;;;;-2.84;87.13;98963.32;217407;1267;141978;-72
2024/01/19 01:42:26;;;;;;;34.30;16.00;;;;;;;-2.90;87.02;98968.61;215620;1267;141546;-70
2024/01/19 01:47:29;;;;;;;46.20;22.90;;;;;;;-2.99;86.90;98964.84;215646;1267;142852;-72
2024/01/19 01:52:32;;;;;;;49.40;21.20;;;;;;;-3.07;87.06;98977.98;216400;1267;141222;-74
2024/01/19 01:57:35;;;;;;;47.20;21.50;;;;;;;-3.12;86.94;98988.30;215471;1266;141203;-73
2024/01/19 02:02:38;;;;;;;49.70;23.50;;;;;;;-3.17;87.01;98995.01;215408;1267;141425;-73
2024/01/19 02:07:41;;;;;;;44.30;22.30;;;;;;;-3.20;87.17;98999.50;216537;1266;141297;-73
2024/01/19 02:12:49;;;;;;;33.80;16.40;;;;;;;-3.21;87.20;98999.63;215561;1271;140804;-73
2024/01/19 02:17:54;;;;;;;47.10;22.40;;;;;;;-3.24;87.27;99002.83;215616;1267;237899;-72
2024/01/19 02:22:59;;;;;;;45.80;18.80;;;;;;;-3.24;87.46;99012.73;215335;1267;142983;-71
2024/01/19 02:28:03;;;;;;;50.70;23.80;;;;;;;-3.30;87.31;99016.12;215557;1267;152481;-72
2024/01/19 02:33:06;;;;;;;41.80;18.60;;;;;;;-3.32;87.41;99019.83;216001;1268;141858;-72
2024/01/19 02:38:09;;;;;;;42.30;20.00;;;;;;;-3.36;87.50;99023.88;215601;1267;141606;-73
2024/01/19 02:43:13;;;;;;;42.10;22.20;;;;;;;-3.35;87.65;99037.91;215449;1270;142163;-72
2024/01/19 02:48:18;;;;;;;23.40;10.90;;;;;;;-3.35;87.63;99051.05;215439;1270;141389;-72
2024/01/19 02:53:30;;;;;;;16.50;9.30;;;;;;;-3.41;87.45;99057.89;215594;1267;141213;-72
2024/01/19 02:58:35;;;;;;;19.90;11.20;;;;;;;-3.41;87.23;99064.73;215440;1270;140624;-72
2024/01/19 03:03:40;;;;;;;20.00;9.90;;;;;;;-3.40;87.16;99074.83;216389;1267;140861;-73
2024/01/19 03:08:43;;;;;;;19.30;10.50;;;;;;;-3.36;87.18;99088.74;217993;1267;141672;-73
2024/01/19 03:13:46;;;;;;;17.00;10.00;;;;;;;-3.32;87.19;99103.38;216353;1267;141382;-75
2024/01/19 03:18:49;;;;;;;23.30;11.40;;;;;;;-3.29;87.16;99099.05;215636;1267;141245;-74
2024/01/19 03:23:53;;;;;;;17.70;9.60;;;;;;;-3.29;86.75;99107.89;215536;1267;141582;-72
2024/01/19 03:28:57;;;;;;;21.10;9.00;;;;;;;-3.29;86.87;99112.61;215390;1267;141275;-74
2024/01/19 03:34:00;;;;;;;13.50;7.50;;;;;;;-3.32;86.58;99118.96;216180;1267;140550;-71
2024/01/19 03:39:03;;;;;;;19.30;9.20;;;;;;;-3.37;86.63;99118.31;217079;1267;141733;-73
2024/01/19 03:44:07;;;;;;;21.90;9.50;;;;;;;-3.40;86.55;99126.30;217130;1267;140625;-73
2024/01/19 03:49:12;;;;;;;18.70;11.70;;;;;;;-3.40;86.66;99138.58;215389;1270;141009;-73
2024/01/19 03:54:16;;;;;;;15.80;8.30;;;;;;;-3.36;86.67;99137.63;215556;1267;142805;-73
2024/01/19 03:59:19;;;;;;;16.80;9.50;;;;;;;-3.36;86.51;99147.40;216133;1272;140983;-73
2024/01/19 04:04:23;;;;;;;18.20;11.20;;;;;;;-3.41;86.11;99163.00;216168;1267;141833;-74
2024/01/19 04:09:27;;;;;;;14.70;10.20;;;;;;;-3.43;86.34;99173.81;215498;1270;141078;-73
2024/01/19 04:14:31;;;;;;;14.10;9.20;;;;;;;-3.44;86.28;99182.64;215504;1271;140691;-72
2024/01/19 04:19:34;;;;;;;16.60;10.60;;;;;;;-3.49;86.18;99185.39;215584;1268;142783;-73
2024/01/19 04:24:37;;;;;;;19.00;9.90;;;;;;;-3.54;86.07;99188.39;215913;1267;141989;-73
2024/01/19 04:29:40;;;;;;;17.00;9.50;;;;;;;-3.63;85.79;99195.61;216213;1267;140920;-71
2024/01/19 04:34:44;;;;;;;17.90;11.80;;;;;;;-3.76;85.78;99209.22;215737;1267;141078;-73
2024/01/19 04:39:48;;;;;;;22.00;12.60;;;;;;;-3.86;85.57;99213.16;215675;1267;140900;-73
2024/01/19 04:44:51;;;;;;;23.20;12.50;;;;;;;-3.96;85.57;99220.11;216541;1267;142878;-74
2024/01/19 04:49:54;;;;;;;19.40;10.40;;;;;;;-4.07;85.41;99221.20;216913;1267;142045;-73
2024/01/19 04:54:57;;;;;;;23.70;10.80;;;;;;;-4.19;85.37;99221.56;215637;1267;141333;-72
2024/01/19 05:00:00;;;;;;;21.90;12.00;;;;;;;-4.30;85.12;99226.32;216875;1267;142050;-72
2024/01/19 05:05:04;;;;;;;22.60;11.60;;;;;;;-4.39;85.28;99229.97;216729;1266;140643;-73
2024/01/19 05:10:07;;;;;;;22.30;12.30;;;;;;;-4.48;85.11;99227.85;217687;1267;140779;-72
2024/01/19 05:15:10;;;;;;;22.40;11.70;;;;;;;-4.53;85.26;99231.17;215535;1270;140610;-73
2024/01/19 05:20:14;;;;;;;26.50;13.80;;;;;;;-4.60;85.36;99235.36;217303;1267;141573;-72
2024/01/19 05:25:18;;;;;;;22.90;13.20;;;;;;;-4.66;85.45;99236.46;218548;1266;141370;-72
2024/01/19 05:30:23;;;;;;;22.60;12.70;;;;;;;-4.70;85.59;99233.79;218620;1267;141383;-72
2024/01/19 05:35:26;;;;;;;26.30;11.50;;;;;;;-4.74;85.48;99243.98;217824;1267;140836;-73
2024/01/19 05:40:29;;;;;;;26.80;11.60;;;;;;;-4.76;85.49;99245.98;217028;1266;141348;-73
2024/01/19 05:45:31;;;;;;;20.90;10.80;;;;;;;-4.79;85.53;99250.77;215973;1270;142756;-74
2024/01/19 05:50:34;;;;;;;22.50;11.90;;;;;;;-4.87;85.58;99260.23;216713;1267;142341;-73
2024/01/19 05:55:37;;;;;;;18.40;11.80;;;;;;;-4.90;85.86;99273.83;216375;1267;140698;-71
2024/01/19 06:00:41;;;;;;;31.30;15.40;;;;;;;-4.95;85.98;99282.42;215835;1271;141114;-68
2024/01/19 06:05:44;;;;;;;28.00;13.80;;;;;;;-4.99;85.92;99284.05;216865;1267;142572;-72
2024/01/19 06:10:46;;;;;;;19.00;12.50;;;;;;;-5.01;86.07;99290.55;216509;1267;141465;-72
2024/01/19 06:15:50;;;;;;;30.50;13.70;;;;;;;-5.04;86.05;99294.06;216133;1270;141145;-73
2024/01/19 06:20:54;;;;;;;27.40;13.50;;;;;;;-5.10;85.99;99302.80;216577;1267;140708;-73
2024/01/19 06:25:57;;;;;;;27.40;14.70;;;;;;;-5.17;86.16;99303.40;216521;1267;141721;-73
2024/01/19 06:31:03;;;;;;;29.50;15.30;;;;;;;-5.21;86.23;99306.88;216525;1267;141007;-73
2024/01/19 06:36:08;;;;;;;26.30;14.60;;;;;;;-5.20;86.45;99317.64;215933;1267;141138;-71
2024/01/19 06:41:11;;;;;;;30.10;15.50;;;;;;;-5.26;86.20;99327.04;216497;1268;140858;-72
2024/01/19 06:46:13;;;;;;;33.60;17.30;;;;;;;-5.29;86.52;99332.69;216947;1270;140745;-68
2024/01/19 06:51:16;;;;;;;35.90;19.00;;;;;;;-5.30;86.60;99338.48;216666;1267;140708;-69
2024/01/19 06:56:19;;;;;;;31.00;13.80;;;;;;;-5.31;86.80;99347.17;216302;1267;142652;-70
2024/01/19 07:01:25;;;;;;;28.30;15.10;;;;;;;-5.28;87.06;99346.95;216922;1269;140866;-71
2024/01/19 07:06:28;;;;;;;27.80;15.10;;;;;;;-5.25;86.89;99355.12;216250;1267;141654;-75
2024/01/19 07:11:31;;;;;;;25.60;14.40;;;;;;;-5.22;86.92;99353.29;216973;1268;141367;-69
2024/01/19 07:16:39;;;;;;;32.50;18.30;;;;;;;-5.17;86.99;99354.65;217769;1267;141128;-72
2024/01/19 07:21:43;;;;;;;31.00;16.30;;;;;;;-5.09;86.98;99360.89;218478;1272;141366;-69
2024/01/19 07:26:45;;;;;;;29.00;15.00;;;;;;;-5.00;87.09;99365.42;217705;1267;141128;-73
2024/01/19 07:31:48;;;;;;;23.50;14.10;;;;;;;-4.88;86.94;99366.39;215595;1268;140925;-74
2024/01/19 07:36:52;;;;;;;27.10;14.90;;;;;;;-4.80;86.92;99361.73;215772;1272;141294;-75
2024/01/19 07:41:54;;;;;;;33.60;18.80;;;;;;;-4.73;86.93;99366.45;215936;1267;143026;-75
2024/01/19 07:46:58;;;;;;;27.30;13.40;;;;;;;-4.61;86.92;99368.07;216104;1272;143070;-70
2024/01/19 07:52:01;;;;;;;31.90;18.00;;;;;;;-4.53;86.97;99366.77;217291;1267;142880;-68
2024/01/19 07:57:05;;;;;;;31.60;14.10;;;;;;;-4.46;86.80;99369.21;217277;1267;142068;-69
2024/01/19 08:02:09;;;;;;;39.70;19.50;;;;;;;-4.32;86.73;99369.77;216642;1267;140621;-67
2024/01/19 08:07:15;;;;;;;26.60;14.30;;;;;;;-4.19;86.88;99372.52;215506;1270;142339;-69
2024/01/19 08:12:18;;;;;;;26.60;15.90;;;;;;;-4.12;86.51;99372.14;216542;1267;210724;-70
2024/01/19 08:17:23;;;;;;;37.80;18.40;;;;;;;-4.08;86.19;99371.78;215609;1272;141569;-70
2024/01/19 08:22:26;;;;;;;30.30;18.10;;;;;;;-3.98;86.51;99376.83;216339;1270;141351;-70
2024/01/19 08:27:30;;;;;;;34.10;16.20;;;;;;;-3.80;86.61;99385.28;215724;1272;141074;-72
2024/01/19 08:32:34;;;;;;;29.00;15.20;;;;;;;-3.60;86.40;99393.05;215948;1271;140742;-71
2024/01/19 08:37:40;;;;;;;40.70;19.90;;;;;;;-3.44;86.41;99394.58;215166;1268;141995;-73
2024/01/19 08:42:43;;;;;;;36.90;15.20;;;;;;;-3.20;86.30;99389.66;215312;1268;141733;-73
2024/01/19 08:47:50;;;;;;;31.40;18.20;;;;;;;-2.92;86.23;99392.03;215479;1267;140898;-73
2024/01/19 08:52:53;;;;;;;35.20;17.10;;;;;;;-2.77;85.81;99395.06;215322;1271;141207;-71
2024/01/19 08:57:56;;;;;;;34.60;19.70;;;;;;;-2.69;85.65;99401.60;216337;1267;141556;-73
2024/01/19 09:03:00;;;;;;;30.40;17.50;;;;;;;-2.54;85.46;99411.57;218526;1268;141136;-77
2024/01/19 09:08:07;;;;;;;31.00;19.10;;;;;;;-2.36;85.24;99415.42;217991;1268;141581;-76
2024/01/19 09:13:11;;;;;;;23.00;12.90;;;;;;;-2.15;85.17;99424.77;215674;1268;141948;-74
2024/01/19 09:18:14;;;;;;;29.90;16.90;;;;;;;-2.07;84.66;99430.64;215693;1267;140597;-75
2024/01/19 09:23:19;;;;;;;42.80;18.70;;;;;;;-1.94;84.94;99429.96;215708;1268;141469;-76
2024/01/19 09:28:22;;;;;;;38.60;16.10;;;;;;;-1.77;84.63;99445.93;217105;1267;141340;-74
2024/01/19 09:33:25;;;;;;;30.80;15.70;;;;;;;-1.56;84.73;99452.73;215450;1269;141041;-76
2024/01/19 09:38:28;;;;;;;25.90;14.90;;;;;;;-1.33;84.71;99456.55;216107;1268;140743;-73
2024/01/19 09:43:34;;;;;;;32.60;15.60;;;;;;;-1.20;84.41;99466.61;216404;1268;140524;-72
2024/01/19 09:48:49;;;;;;;32.20;14.70;;;;;;;-1.03;84.60;99473.14;215476;1272;141086;-71
2024/01/19 09:53:55;;;;;;;26.80;13.60;;;;;;;-0.85;84.16;99472.88;215276;1271;142204;-71
2024/01/19 09:59:00;;;;;;;22.80;14.30;;;;;;;-0.69;83.69;99474.16;215430;1268;142033;-71
2024/01/19 10:04:10;;;;;;;22.40;12.50;;;;;;;-0.47;83.78;99473.02;215332;1268;142591;-70
2024/01/19 10:09:14;;;;;;;23.10;12.70;;;;;;;-0.19;84.04;99478.98;216250;1268;141816;-71
2024/01/19 10:14:18;;;;;;;20.00;12.10;;;;;;;0.05;83.47;99480.31;215286;1268;143058;-73
2024/01/19 10:19:24;;;;;;;26.90;15.10;;;;;;;0.31;83.38;99490.42;215509;1267;141002;-74
2024/01/19 10:24:30;;;;;;;12.00;7.50;;;;;;;0.51;83.10;99492.15;215371;1268;140366;-74
2024/01/19 10:29:33;;;;;;;23.20;11.70;;;;;;;0.69;82.12;99486.58;215254;1268;198619;-75
2024/01/19 10:34:36;;;;;;;19.10;11.20;;;;;;;0.87;82.38;99485.63;215471;1273;141190;-74
2024/01/19 10:39:40;;;;;;;27.70;13.90;;;;;;;0.99;82.06;99487.75;215594;1271;140508;-74
2024/01/19 10:44:44;;;;;;;20.10;12.90;;;;;;;1.04;81.48;99489.64;215702;1271;140701;-75
2024/01/19 10:49:46;;;;;;;21.50;12.30;;;;;;;1.01;81.43;99494.98;215501;1269;140723;-75
2024/01/19 10:54:50;;;;;;;29.10;12.60;;;;;;;0.99;80.94;99496.34;215501;1272;140625;-74
2024/01/19 10:59:53;;;;;;;23.50;11.80;;;;;;;0.95;80.84;99494.84;215549;1268;140541;-75
2024/01/19 11:04:56;;;;;;;24.40;11.20;;;;;;;0.76;80.35;99496.95;215600;1268;140298;-77
2024/01/19 11:09:59;;;;;;;22.50;11.90;;;;;;;0.71;80.72;99510.67;215395;1268;140315;-74
2024/01/19 11:15:02;;;;;;;21.20;12.00;;;;;;;0.57;80.14;99517.64;215793;1268;140675;-73
2024/01/19 11:20:05;;;;;;;22.00;10.60;;;;;;;0.36;80.33;99512.26;215734;1268;141099;-74
2024/01/19 11:25:15;;;;;;;16.50;10.30;;;;;;;0.15;80.20;99510.59;215407;1271;141330;-73
2024/01/19 11:31:07;;;;;;;15.60;9.40;;;;;;;0.08;80.25;99507.18;215402;1268;140518;-74
2024/01/19 11:36:11;;;;;;;16.00;9.80;;;;;;;0.09;80.19;99500.46;215208;1271;141182;-75
2024/01/19 11:41:33;;;;;;;16.10;9.50;;;;;;;0.31;80.10;99498.61;216084;1267;151453;-74
2024/01/19 11:46:44;;;;;;;17.60;10.60;;;;;;;0.49;79.78;99496.55;215351;1271;141256;-78
2024/01/19 11:51:48;;;;;;;15.80;9.80;;;;;;;0.67;79.76;99492.21;216483;1267;142429;-77
2024/01/19 11:56:51;;;;;;;17.70;7.00;;;;;;;0.85;79.59;99486.05;216894;1271;140298;-78
2024/01/19 12:01:54;;;;;;;14.50;9.20;;;;;;;0.92;79.11;99492.69;215751;1268;140920;-76
2024/01/19 12:07:06;;;;;;;16.60;8.10;;;;;;;0.94;79.03;99486.78;215482;1272;141313;-76
2024/01/19 12:12:10;;;;;;;19.60;9.20;;;;;;;0.93;78.70;99480.05;215782;1268;140964;-76
2024/01/19 12:17:13;;;;;;;18.50;8.90;;;;;;;0.93;78.70;99479.14;215557;1267;140308;-76
2024/01/19 12:22:17;;;;;;;16.70;8.10;;;;;;;0.87;78.35;99484.08;215356;1271;140482;-76
2024/01/19 12:27:20;;;;;;;17.30;10.40;;;;;;;0.81;78.39;99482.68;215278;1271;142487;-75
2024/01/19 12:32:26;;;;;;;17.30;9.20;;;;;;;0.80;78.72;99479.84;215462;1273;140364;-76
2024/01/19 12:37:29;;;;;;;15.80;8.40;;;;;;;0.75;78.56;99482.34;217263;1267;142785;-77
2024/01/19 12:42:36;;;;;;;19.20;8.70;;;;;;;0.67;78.20;99481.67;216283;1271;141914;-76
2024/01/19 12:47:43;;;;;;;13.90;7.80;;;;;;;0.72;78.58;99486.96;215214;1271;140703;-75
2024/01/19 12:52:48;;;;;;;18.80;9.70;;;;;;;0.71;78.34;99498.77;215644;1268;139987;-73
2024/01/19 12:57:51;;;;;;;12.80;7.40;;;;;;;0.69;78.28;99502.27;215348;1268;140497;-71
2024/01/19 13:02:55;;;;;;;15.10;9.30;;;;;;;0.68;78.04;99506.30;215717;1271;141012;-73
2024/01/19 13:08:02;;;;;;;15.50;9.70;;;;;;;0.65;78.27;99513.17;217282;1271;141566;-75
2024/01/19 13:13:09;;;;;;;;;;;;;;;0.61;78.04;99527.55;215516;1268;140589;-72
2024/01/19 13:18:15;;;;;;;17.10;7.50;;;;;;;0.56;77.98;99532.84;215739;1273;126382;-74
2024/01/19 13:23:20;;;;;;;16.30;10.00;;;;;;;0.50;77.75;99545.56;218217;1267;226001;-72
2024/01/19 13:28:24;;;;;;;14.10;8.20;;;;;;;0.44;77.87;99549.47;217542;1268;140873;-74
2024/01/19 13:33:27;;;;;;;12.50;7.20;;;;;;;0.39;78.07;99554.58;215502;1268;140846;-75
2024/01/19 13:38:30;;;;;;;12.50;5.80;;;;;;;0.39;77.79;99558.70;215257;1267;140359;-74
2024/01/19 13:43:35;;;;;;;16.50;10.50;;;;;;;0.27;77.46;99564.94;215522;1271;141271;-75
2024/01/19 13:48:39;;;;;;;12.50;8.80;;;;;;;0.13;77.60;99576.16;215366;1268;140986;-74
2024/01/19 13:53:45;;;;;;;14.40;7.10;;;;;;;0.02;77.97;99582.63;216715;1269;140557;-72
2024/01/19 13:58:50;;;;;;;12.60;8.30;;;;;;;0.03;78.38;99599.20;215230;1272;141265;-70
2024/01/19 14:03:53;;;;;;;16.20;10.00;;;;;;;-0.05;78.15;99609.06;215377;1272;141315;-75
2024/01/19 14:09:00;;;;;;;18.80;12.20;;;;;;;-0.13;78.54;99621.53;215691;1272;140823;-73
2024/01/19 14:14:03;;;;;;;14.00;8.60;;;;;;;-0.24;78.77;99631.35;215701;1272;141542;-74
2024/01/19 14:19:07;;;;;;;15.70;7.80;;;;;;;-0.33;78.67;99636.84;215470;1271;141263;-74
2024/01/19 14:24:10;;;;;;;18.60;10.40;;;;;;;-0.44;78.87;99645.15;216112;1267;140568;-73
2024/01/19 14:29:13;;;;;;;25.20;10.50;;;;;;;-0.55;78.70;99645.31;215508;1272;140437;-72
2024/01/19 14:34:16;;;;;;;18.30;10.00;;;;;;;-0.61;79.18;99654.23;215413;1273;141408;-73
2024/01/19 14:39:19;;;;;;;23.20;10.10;;;;;;;-0.66;79.26;99659.65;215953;1271;141820;-73
2024/01/19 14:44:23;;;;;;;18.50;10.00;;;;;;;-0.75;79.12;99674.72;215382;1271;141647;-75
2024/01/19 14:49:31;;;;;;;20.50;10.90;;;;;;;-0.84;79.42;99681.41;215738;1272;140519;-75
2024/01/19 14:54:36;;;;;;;27.80;12.30;;;;;;;-0.97;79.40;99687.02;215513;1272;223389;-74
2024/01/19 14:59:39;;;;;;;19.90;11.50;;;;;;;-1.04;79.66;99692.98;215553;1268;141239;-73
2024/01/19 15:04:43;;;;;;;20.20;11.60;;;;;;;-1.08;80.02;99700.40;215235;1272;140981;-73
2024/01/19 15:09:46;;;;;;;21.10;12.60;;;;;;;-1.15;79.67;99707.95;215571;1273;141927;-76
2024/01/19 15:14:50;;;;;;;16.00;10.40;;;;;;;-1.19;79.82;99710.11;215295;1272;141924;-75
2024/01/19 15:19:54;;;;;;;19.20;11.70;;;;;;;-1.21;80.15;99716.78;215516;1269;142479;-75
2024/01/19 15:24:58;;;;;;;14.20;8.00;;;;;;;-1.21;79.94;99719.88;215610;1271;140702;-74
2024/01/19 15:30:01;;;;;;;24.40;13.70;;;;;;;-1.25;80.06;99727.70;216045;1272;141340;-74
2024/01/19 15:35:04;;;;;;;22.10;13.20;;;;;;;-1.31;80.21;99739.28;216619;1270;140767;-76
2024/01/19 15:40:08;;;;;;;20.40;10.30;;;;;;;-1.32;80.43;99749.13;216752;1270;140392;-75
2024/01/19 15:45:11;;;;;;;18.80;12.20;;;;;;;-1.33;80.54;99750.09;215856;1271;141003;-71
2024/01/19 15:50:14;;;;;;;18.30;11.60;;;;;;;-1.31;80.53;99752.00;215913;1271;142607;-73
2024/01/19 15:55:18;;;;;;;20.80;12.40;;;;;;;-1.33;80.61;99751.30;216347;1267;141438;-75
2024/01/19 16:00:21;;;;;;;25.10;12.60;;;;;;;-1.34;80.72;99758.04;216167;1267;140686;-73
2024/01/19 16:05:23;;;;;;;15.60;10.00;;;;;;;-1.35;80.72;99766.17;216364;1267;140430;-73
2024/01/19 16:10:26;;;;;;;19.50;12.80;;;;;;;-1.36;80.63;99776.52;216400;1267;141552;-72
2024/01/19 16:15:29;;;;;;;23.00;11.10;;;;;;;-1.40;80.46;99782.65;216342;1267;141396;-73
2024/01/19 16:20:32;;;;;;;17.70;12.10;;;;;;;-1.40;80.59;99783.98;215860;1270;141380;-72
2024/01/19 16:25:40;;;;;;;23.70;11.40;;;;;;;-1.45;80.82;99789.13;215772;1272;140729;-75
2024/01/19 16:30:43;;;;;;;19.00;11.30;;;;;;;-1.45;81.03;99792.45;216241;1270;141603;-75
2024/01/19 16:35:45;;;;;;;14.30;9.60;;;;;;;-1.44;81.19;99801.25;215749;1272;141237;-75
2024/01/19 16:40:48;;;;;;;22.00;10.60;;;;;;;-1.44;80.91;99809.65;215866;1272;142262;-75
2024/01/19 16:45:53;;;;;;;19.10;10.40;;;;;;;-1.46;80.93;99812.61;215882;1270;140845;-73
2024/01/19 16:50:59;;;;;;;14.10;8.00;;;;;;;-1.48;81.13;99818.55;216054;1273;141389;-76
2024/01/19 16:56:02;;;;;;;14.40;8.10;;;;;;;-1.51;80.96;99825.10;216078;1270;140331;-74
2024/01/19 17:01:05;;;;;;;10.80;7.00;;;;;;;-1.52;80.93;99828.33;215943;1267;140863;-72
2024/01/19 17:06:08;;;;;;;14.10;6.90;;;;;;;-1.51;80.94;99831.27;216224;1270;140613;-73
2024/01/19 17:11:11;;;;;;;10.80;7.50;;;;;;;-1.52;80.73;99837.64;216906;1267;140762;-73
2024/01/19 17:16:16;;;;;;;10.00;5.20;;;;;;;-1.51;80.81;99843.30;215906;1271;140718;-74
2024/01/19 17:21:29;;;;;;;12.90;6.60;;;;;;;-1.55;80.63;99856.77;215544;1270;140795;-73
2024/01/19 17:26:31;;;;;;;12.50;7.20;;;;;;;-1.56;80.85;99858.26;215697;1267;140369;-73
2024/01/19 17:31:34;;;;;;;12.90;6.70;;;;;;;-1.56;80.89;99866.13;215792;1270;140249;-75
2024/01/19 17:36:38;;;;;;;10.50;6.80;;;;;;;-1.59;80.50;99874.41;215838;1270;140789;-72
2024/01/19 17:41:41;;;;;;;14.50;7.40;;;;;;;-1.62;80.77;99873.15;216340;1271;140915;-72
2024/01/19 17:46:45;;;;;;;14.60;6.70;;;;;;;-1.68;80.75;99878.84;215884;1272;140914;-75
2024/01/19 17:51:49;;;;;;;9.10;6.20;;;;;;;-1.72;80.78;99884.77;216381;1272;140407;-73
2024/01/19 17:56:52;;;;;;;16.70;9.60;;;;;;;-1.79;80.54;99890.68;215922;1267;140108;-72
2024/01/19 18:01:55;;;;;;;9.10;6.50;;;;;;;-1.85;80.69;99897.35;215903;1267;140472;-76
2024/01/19 18:06:57;;;;;;;17.10;7.50;;;;;;;-1.86;80.80;99901.83;215643;1271;140228;-76
2024/01/19 18:12:02;;;;;;;13.90;6.80;;;;;;;-1.85;80.91;99906.41;215882;1272;141315;-72
2024/01/19 18:17:05;;;;;;;12.50;5.60;;;;;;;-1.85;80.90;99908.71;215448;1270;142401;-74
2024/01/19 18:22:09;;;;;;;14.20;5.80;;;;;;;-1.87;80.75;99921.14;215939;1272;141387;-73
2024/01/19 18:27:12;;;;;;;12.00;7.00;;;;;;;-1.87;81.01;99924.90;215530;1270;140648;-74
2024/01/19 18:32:16;;;;;;;12.70;6.30;;;;;;;-1.83;80.84;99937.46;216055;1270;143194;-74
2024/01/19 18:37:21;;;;;;;16.10;9.00;;;;;;;-1.79;80.92;99946.27;218063;1267;140796;-74
2024/01/19 18:42:24;;;;;;;12.30;8.50;;;;;;;-1.75;80.92;99945.49;215300;1273;140619;-75
2024/01/19 18:47:27;;;;;;;16.40;7.00;;;;;;;-1.74;80.86;99953.23;215393;1270;140608;-76
2024/01/19 18:52:30;;;;;;;13.40;7.10;;;;;;;-1.74;80.82;99950.48;215603;1267;140630;-74
2024/01/19 18:57:34;;;;;;;14.80;7.30;;;;;;;-1.73;81.03;99952.94;215431;1267;140939;-75
2024/01/19 19:02:38;;;;;;;17.20;8.20;;;;;;;-1.72;81.14;99957.16;216987;1267;140596;-74
2024/01/19 19:07:46;;;;;;;10.60;5.60;;;;;;;-1.69;81.08;99959.59;215648;1267;140580;-74
2024/01/19 19:12:50;;;;;;;14.20;8.20;;;;;;;-1.67;81.11;99968.30;215505;1267;245849;-74
2024/01/19 19:17:53;;;;;;;9.50;6.90;;;;;;;-1.66;81.38;99970.86;216223;1267;141348;-74
2024/01/19 19:22:59;;;;;;;12.80;6.70;;;;;;;-1.67;81.24;99982.91;215668;1267;141756;-74
2024/01/19 19:28:02;;;;;;;13.80;7.40;;;;;;;-1.70;81.37;99989.41;215519;1270;141272;-74
2024/01/19 19:33:06;;;;;;;14.00;8.00;;;;;;;-1.68;81.23;100003.71;215436;1267;141171;-74
2024/01/19 19:38:10;;;;;;;13.90;7.90;;;;;;;-1.68;81.38;100007.40;215402;1267;141228;-72
2024/01/19 19:43:14;;;;;;;18.80;10.00;;;;;;;-1.70;81.46;100004.11;215364;1273;140454;-73
2024/01/19 19:48:17;;;;;;;15.40;7.80;;;;;;;-1.74;81.37;100003.40;215478;1267;141868;-73
2024/01/19 19:53:20;;;;;;;20.10;11.60;;;;;;;-1.83;81.30;100003.96;215284;1267;140603;-72
2024/01/19 19:58:26;;;;;;;20.70;10.00;;;;;;;-1.90;81.30;100013.71;215413;1267;141009;-73
2024/01/19 20:03:30;;;;;;;14.80;8.50;;;;;;;-1.97;81.35;100024.98;215468;1267;141466;-73
2024/01/19 20:08:35;;;;;;;18.40;9.80;;;;;;;-2.05;81.73;100032.08;215610;1267;141334;-73
2024/01/19 20:13:38;;;;;;;19.60;11.30;;;;;;;-2.12;81.56;100035.39;216190;1267;140507;-74
2024/01/19 20:18:41;;;;;;;21.90;11.10;;;;;;;-2.21;81.71;100039.81;215699;1267;141144;-74
2024/01/19 20:23:47;;;;;;;21.50;12.00;;;;;;;-2.26;81.75;100048.03;215560;1267;141581;-73
2024/01/19 20:28:52;;;;;;;22.40;9.80;;;;;;;-2.34;82.00;100054.68;216497;1267;142313;-73
2024/01/19 20:33:56;;;;;;;23.70;10.60;;;;;;;-2.41;82.14;100054.94;216826;1267;140894;-73
2024/01/19 20:39:00;;;;;;;19.20;9.90;;;;;;;-2.44;82.26;100056.98;215956;1267;141878;-73
2024/01/19 20:44:04;;;;;;;27.30;13.40;;;;;;;-2.51;82.28;100055.55;215479;1267;142095;-75
2024/01/19 20:49:08;;;;;;;19.80;11.40;;;;;;;-2.57;82.31;100055.46;215392;1270;140944;-73
2024/01/19 20:54:11;;;;;;;24.90;11.40;;;;;;;-2.61;82.56;100063.00;215297;1267;141173;-74
2024/01/19 20:59:15;;;;;;;23.00;12.70;;;;;;;-2.66;82.61;100063.75;216360;1266;141860;-73
2024/01/19 21:04:18;;;;;;;17.50;9.60;;;;;;;-2.70;82.57;100070.16;218107;1266;143129;-73
2024/01/19 21:09:21;;;;;;;20.90;12.00;;;;;;;-2.72;82.88;100077.48;215681;1267;141111;-74
2024/01/19 21:14:27;;;;;;;24.50;13.00;;;;;;;-2.65;83.26;100083.54;216150;1267;141687;-76
2024/01/19 21:19:30;;;;;;;20.90;12.10;;;;;;;-2.59;83.42;100078.41;215321;1272;141688;-72
2024/01/19 21:24:33;;;;;;;25.90;12.00;;;;;;;-2.54;83.47;100087.83;215569;1270;140969;-74
2024/01/19 21:29:35;;;;;;;18.40;10.50;;;;;;;-2.50;83.43;100091.33;215177;1267;140838;-74
2024/01/19 21:34:39;;;;;;;18.30;12.00;;;;;;;-2.44;83.70;100094.10;215199;1270;141314;-74
2024/01/19 21:39:42;;;;;;;21.10;10.50;;;;;;;-2.39;83.88;100091.52;215290;1267;143329;-74
2024/01/19 21:44:48;;;;;;;19.40;11.70;;;;;;;-2.34;83.99;100091.60;215221;1271;141551;-74
2024/01/19 21:49:52;;;;;;;19.90;12.90;;;;;;;-2.32;84.03;100096.77;215350;1267;143288;-74
2024/01/19 21:54:56;;;;;;;22.90;10.90;;;;;;;-2.28;84.23;100110.86;215264;1267;141231;-72
2024/01/19 22:00:00;;;;;;;16.80;7.50;;;;;;;-2.26;83.92;100111.41;215552;1267;141602;-74
2024/01/19 22:05:04;;;;;;;24.20;13.00;;;;;;;-2.23;84.28;100117.73;215337;1267;142320;-75
2024/01/19 22:10:08;;;;;;;11.60;7.80;;;;;;;-2.18;84.53;100122.33;215600;1271;141719;-75
2024/01/19 22:15:12;;;;;;;18.40;9.90;;;;;;;-2.16;84.54;100128.92;215234;1270;141054;-74
2024/01/19 22:20:15;;;;;;;15.80;7.50;;;;;;;-2.13;84.68;100133.09;215670;1267;141670;-72
2024/01/19 22:25:19;;;;;;;21.00;9.30;;;;;;;-2.09;84.55;100131.34;215486;1267;143343;-74
2024/01/19 22:30:23;;;;;;;19.20;9.40;;;;;;;-2.04;84.83;100135.59;215508;1267;206084;-71
2024/01/19 22:35:26;;;;;;;24.30;11.40;;;;;;;-2.00;84.88;100145.45;215343;1272;140761;-74
2024/01/19 22:40:29;;;;;;;17.60;8.60;;;;;;;-1.97;84.84;100149.07;215287;1272;140905;-73
2024/01/19 22:45:33;;;;;;;31.40;11.40;;;;;;;-1.95;84.99;100153.19;215316;1270;140743;-74
2024/01/19 22:50:36;;;;;;;19.00;11.30;;;;;;;-1.91;85.18;100160.98;215204;1271;142884;-74